Time;durP1;ratioP1;P1;durP2;ratioP2;P2;SDS_P1;SDS_P2;PMS_P1;PMS_P2;Temp;Humidity;BMP_temperature;BMP_pressure;BME280_temperature;BME280_humidity;BME280_pressure;Samples;Min_cycle;Max_cycle;Signal;HPM_P1;HPM_P2
2023/11/17 00:00:50;;;;;;;;;;;8.70;99.90;;;;;;5033481;28;20357;-74
2023/11/17 00:03:15;;;;;;;;;;;8.60;99.90;;;;;;5051508;28;19908;-75
2023/11/17 00:05:41;;;;;;;;;;;8.50;99.90;;;;;;5051433;28;20020;-74
2023/11/17 00:08:07;;;;;;;;;;;8.60;99.90;;;;;;5051565;28;20011;-75
2023/11/17 00:10:32;;;;;;;;;;;8.50;99.90;;;;;;5051258;28;19958;-74
2023/11/17 00:12:58;;;;;;;;;;;8.50;99.90;;;;;;5051543;28;19917;-74
2023/11/17 00:15:24;;;;;;;;;;;8.50;99.90;;;;;;5051705;28;20292;-74
2023/11/17 00:17:51;;;;;;;;;;;8.50;99.90;;;;;;5052198;28;20282;-74
2023/11/17 00:20:20;;;;;;;;;;;8.40;99.90;;;;;;5051679;28;20377;-75
2023/11/17 00:22:48;;;;;;;;;;;8.40;99.90;;;;;;5051815;28;19924;-74
2023/11/17 00:25:17;;;;;;;;;;;8.40;99.90;;;;;;5049438;28;20238;-74
2023/11/17 00:27:43;;;;;;;;;;;8.40;99.90;;;;;;5032995;28;20003;-74
2023/11/17 00:30:08;;;;;;;;;;;8.40;99.90;;;;;;5032896;28;20038;-74
2023/11/17 00:32:34;;;;;;;;;;;8.40;99.90;;;;;;5032614;28;20270;-74
2023/11/17 00:35:00;;;;;;;;;;;8.40;99.90;;;;;;5050759;28;19919;-75
2023/11/17 00:37:26;;;;;;;;;;;8.40;99.90;;;;;;5050537;28;19915;-74
2023/11/17 00:39:52;;;;;;;;;;;8.40;99.90;;;;;;5032679;28;19912;-74
2023/11/17 00:42:18;;;;;;;;;;;8.40;99.90;;;;;;5050250;28;19904;-75
2023/11/17 00:44:43;;;;;;;;;;;8.20;99.90;;;;;;5031911;28;19951;-74
2023/11/17 00:47:09;;;;;;;;;;;8.10;99.90;;;;;;5050129;28;19913;-74
2023/11/17 00:49:35;;;;;;;;;;;8.10;99.90;;;;;;5049034;28;19908;-74
2023/11/17 00:52:05;;;;;;;;;;;8.00;99.90;;;;;;5050194;28;20549;-74
2023/11/17 00:54:36;;;;;;;;;;;7.90;99.90;;;;;;5032283;28;20003;-74
2023/11/17 00:57:03;;;;;;;;;;;7.70;99.90;;;;;;5032557;28;19909;-74
2023/11/17 00:59:29;;;;;;;;;;;7.60;99.90;;;;;;5050283;28;19962;-75
2023/11/17 01:01:55;;;;;;;;;;;7.60;99.90;;;;;;5050168;28;19912;-74
2023/11/17 01:04:21;;;;;;;;;;;7.70;99.90;;;;;;5050189;28;19908;-75
2023/11/17 01:06:53;;;;;;;;;;;7.70;99.90;;;;;;5050103;28;19916;-74
2023/11/17 01:09:21;;;;;;;;;;;7.90;99.90;;;;;;5032354;28;20571;-74
2023/11/17 01:11:47;;;;;;;;;;;7.90;99.90;;;;;;5050319;28;19912;-75
2023/11/17 01:14:12;;;;;;;;;;;7.90;99.90;;;;;;5048685;28;20083;-75
2023/11/17 01:16:38;;;;;;;;;;;8.00;99.90;;;;;;5050029;28;19909;-74
2023/11/17 01:19:04;;;;;;;;;;;7.90;99.90;;;;;;5032175;28;19931;-74
2023/11/17 01:21:30;;;;;;;;;;;7.90;99.90;;;;;;5032157;28;19999;-74
2023/11/17 01:23:55;;;;;;;;;;;7.80;99.90;;;;;;5050234;28;19908;-74
2023/11/17 01:26:21;;;;;;;;;;;7.90;99.90;;;;;;5050490;28;19995;-74
2023/11/17 01:28:47;;;;;;;;;;;7.80;99.90;;;;;;5049646;28;20443;-74
2023/11/17 01:31:13;;;;;;;;;;;7.80;99.90;;;;;;5049944;28;19905;-74
2023/11/17 01:33:38;;;;;;;;;;;7.90;99.90;;;;;;5050041;28;19924;-74
2023/11/17 01:36:05;;;;;;;;;;;7.80;99.90;;;;;;5049893;28;19908;-74
2023/11/17 01:38:31;;;;;;;;;;;7.60;99.90;;;;;;5031884;28;19905;-74
2023/11/17 01:40:58;;;;;;;;;;;7.60;99.90;;;;;;5049759;28;20278;-75
2023/11/17 01:43:24;;;;;;;;;;;7.60;99.90;;;;;;5031886;28;19952;-74
2023/11/17 01:45:50;;;;;;;;;;;7.70;99.90;;;;;;5049898;28;20003;-75
2023/11/17 01:48:16;;;;;;;;;;;7.70;99.90;;;;;;5049651;28;20058;-75
2023/11/17 01:50:42;;;;;;;;;;;7.70;99.90;;;;;;5049466;28;19919;-74
2023/11/17 01:53:08;;;;;;;;;;;7.70;99.90;;;;;;5049535;28;20023;-75
2023/11/17 01:55:33;;;;;;;;;;;7.80;99.90;;;;;;5051931;28;19967;-74
2023/11/17 01:58:01;;;;;;;;;;;7.60;99.90;;;;;;5053625;28;19908;-74
2023/11/17 02:00:26;;;;;;;;;;;7.70;99.90;;;;;;5035820;28;19915;-74
2023/11/17 02:02:53;;;;;;;;;;;7.70;99.90;;;;;;5053313;28;20010;-73
2023/11/17 02:05:22;;;;;;;;;;;7.60;99.90;;;;;;5035702;28;19909;-74
2023/11/17 02:07:48;;;;;;;;;;;7.50;99.90;;;;;;5035781;28;19908;-74
2023/11/17 02:10:20;;;;;;;;;;;7.60;99.90;;;;;;5035625;28;19904;-74
2023/11/17 02:12:55;;;;;;;;;;;7.60;99.90;;;;;;5035464;28;19920;-74
2023/11/17 02:15:25;;;;;;;;;;;7.70;99.90;;;;;;5035933;28;19908;-74
2023/11/17 02:17:54;;;;;;;;;;;7.70;99.90;;;;;;5035477;28;20360;-74
2023/11/17 02:20:20;;;;;;;;;;;7.70;99.90;;;;;;5052317;28;19956;-74
2023/11/17 02:22:47;;;;;;;;;;;7.70;99.90;;;;;;5054093;28;19986;-74
2023/11/17 02:25:23;;;;;;;;;;;7.80;99.90;;;;;;5055273;28;20341;-75
2023/11/17 02:27:59;;;;;;;;;;;7.70;99.90;;;;;;5035960;28;19904;-74
2023/11/17 02:30:29;;;;;;;;;;;7.60;99.90;;;;;;5035412;28;19909;-74
2023/11/17 02:32:55;;;;;;;;;;;7.50;99.90;;;;;;5034794;28;19920;-74
2023/11/17 02:35:28;;;;;;;;;;;7.70;99.90;;;;;;5053892;28;19913;-74
2023/11/17 02:38:06;;;;;;;;;;;7.70;99.90;;;;;;5052861;28;20441;-75
2023/11/17 02:40:32;;;;;;;;;;;7.90;99.90;;;;;;5052681;28;19911;-74
2023/11/17 02:42:59;;;;;;;;;;;7.80;99.90;;;;;;5052646;28;19908;-74
2023/11/17 02:45:25;;;;;;;;;;;7.70;99.90;;;;;;5052826;28;20296;-75
2023/11/17 02:47:57;;;;;;;;;;;7.70;99.90;;;;;;5052396;28;19932;-74
2023/11/17 02:50:31;;;;;;;;;;;7.60;99.90;;;;;;5035170;28;19912;-74
2023/11/17 02:53:23;;;;;;;;;;;7.70;99.90;;;;;;5034744;28;20304;-74
2023/11/17 02:55:50;;;;;;;;;;;7.70;99.90;;;;;;5044866;28;19909;-74
2023/11/17 02:58:16;;;;;;;;;;;7.60;99.90;;;;;;5052457;28;20024;-74
2023/11/17 03:00:43;;;;;;;;;;;7.50;99.90;;;;;;5034380;28;19948;-74
2023/11/17 03:03:08;;;;;;;;;;;7.60;99.90;;;;;;5034456;28;19940;-74
2023/11/17 03:05:36;;;;;;;;;;;7.60;99.90;;;;;;5052364;28;19940;-74
2023/11/17 03:08:02;;;;;;;;;;;7.60;99.90;;;;;;5051588;28;19905;-74
2023/11/17 03:10:28;;;;;;;;;;;7.60;99.90;;;;;;5052366;28;19940;-75
2023/11/17 03:12:56;;;;;;;;;;;7.70;99.90;;;;;;5034236;28;19947;-75
2023/11/17 03:15:22;;;;;;;;;;;7.80;99.90;;;;;;5052133;28;19920;-74
2023/11/17 03:17:49;;;;;;;;;;;7.60;99.90;;;;;;5051888;28;19904;-74
2023/11/17 03:20:15;;;;;;;;;;;7.60;99.90;;;;;;5034193;28;19905;-75
2023/11/17 03:22:44;;;;;;;;;;;7.50;99.90;;;;;;5033937;28;19962;-75
2023/11/17 03:25:15;;;;;;;;;;;7.50;99.90;;;;;;5034128;28;19928;-73
2023/11/17 03:27:47;;;;;;;;;;;7.50;99.90;;;;;;5034016;28;19919;-72
2023/11/17 03:30:13;;;;;;;;;;;7.40;99.90;;;;;;5034033;28;19909;-74
2023/11/17 03:32:39;;;;;;;;;;;7.50;99.90;;;;;;5051559;28;19909;-74
2023/11/17 03:35:04;;;;;;;;;;;7.70;99.90;;;;;;5051877;28;20396;-74
2023/11/17 03:37:33;;;;;;;;;;;7.80;99.90;;;;;;5051080;28;19915;-74
2023/11/17 03:40:02;;;;;;;;;;;7.70;99.90;;;;;;5051621;28;19954;-74
2023/11/17 03:42:32;;;;;;;;;;;7.60;99.90;;;;;;5051471;28;20053;-73
2023/11/17 03:44:58;;;;;;;;;;;7.60;99.90;;;;;;5051695;28;19991;-74
2023/11/17 03:47:23;;;;;;;;;;;7.50;99.90;;;;;;5051480;28;20430;-74
2023/11/17 03:49:49;;;;;;;;;;;7.40;99.90;;;;;;5051635;28;19905;-74
2023/11/17 03:52:15;;;;;;;;;;;7.50;99.90;;;;;;5033625;28;19905;-74
2023/11/17 03:54:41;;;;;;;;;;;7.50;99.90;;;;;;5033389;28;19920;-74
2023/11/17 03:57:06;;;;;;;;;;;7.40;99.90;;;;;;5033425;28;19905;-74
2023/11/17 03:59:32;;;;;;;;;;;7.40;99.90;;;;;;5049881;28;19908;-74
2023/11/17 04:01:58;;;;;;;;;;;7.40;99.90;;;;;;5033426;28;19912;-74
2023/11/17 04:04:25;;;;;;;;;;;7.30;99.90;;;;;;5033036;28;19905;-74
2023/11/17 04:06:52;;;;;;;;;;;7.40;99.90;;;;;;5033156;28;20050;-74
2023/11/17 04:09:23;;;;;;;;;;;7.50;99.90;;;;;;5051003;28;20392;-73
2023/11/17 04:11:48;;;;;;;;;;;7.30;99.90;;;;;;5033297;28;19912;-74
2023/11/17 04:14:15;;;;;;;;;;;7.30;99.90;;;;;;5051080;28;20340;-74
2023/11/17 04:16:41;;;;;;;;;;;7.50;99.90;;;;;;5051066;28;19912;-74
2023/11/17 04:19:06;;;;;;;;;;;7.40;99.90;;;;;;5050019;28;20392;-74
2023/11/17 04:21:35;;;;;;;;;;;7.40;99.90;;;;;;5050916;28;19915;-73
2023/11/17 04:24:01;;;;;;;;;;;7.30;99.90;;;;;;5033194;28;19911;-74
2023/11/17 04:26:29;;;;;;;;;;;7.40;99.90;;;;;;5051169;28;20429;-74
2023/11/17 04:28:54;;;;;;;;;;;7.50;99.90;;;;;;5033782;28;19912;-74
2023/11/17 04:31:20;;;;;;;;;;;7.50;99.90;;;;;;5035012;28;19955;-75
2023/11/17 04:33:46;;;;;;;;;;;7.60;99.90;;;;;;5034398;28;19924;-74
2023/11/17 04:36:12;;;;;;;;;;;7.50;99.90;;;;;;5050750;28;19908;-74
2023/11/17 04:38:40;;;;;;;;;;;7.50;99.90;;;;;;5050200;28;19904;-74
2023/11/17 04:41:06;;;;;;;;;;;7.50;99.90;;;;;;5050536;28;20364;-74
2023/11/17 04:43:31;;;;;;;;;;;7.60;99.90;;;;;;5050562;28;19940;-74
2023/11/17 04:45:57;;;;;;;;;;;7.60;99.90;;;;;;5049021;28;19944;-75
2023/11/17 04:48:23;;;;;;;;;;;7.50;99.90;;;;;;5032238;28;19927;-74
2023/11/17 04:50:48;;;;;;;;;;;7.40;99.90;;;;;;5050290;28;19916;-74
2023/11/17 04:53:14;;;;;;;;;;;7.50;99.90;;;;;;5050323;28;20011;-74
2023/11/17 04:55:42;;;;;;;;;;;7.40;99.90;;;;;;5032422;28;20437;-75
2023/11/17 04:58:07;;;;;;;;;;;7.30;99.90;;;;;;5049934;28;19928;-74
2023/11/17 05:00:33;;;;;;;;;;;7.40;99.90;;;;;;5050059;28;20016;-74
2023/11/17 05:03:02;;;;;;;;;;;7.40;99.90;;;;;;5050325;28;19940;-74
2023/11/17 05:05:27;;;;;;;;;;;7.30;99.90;;;;;;5032156;28;19962;-73
2023/11/17 05:07:54;;;;;;;;;;;7.30;99.90;;;;;;5048806;28;19905;-74
2023/11/17 05:10:20;;;;;;;;;;;7.50;99.90;;;;;;5050076;28;19905;-75
2023/11/17 05:12:49;;;;;;;;;;;7.50;99.90;;;;;;5049745;28;20065;-74
2023/11/17 05:15:20;;;;;;;;;;;7.50;99.90;;;;;;5032149;28;20230;-74
2023/11/17 05:17:49;;;;;;;;;;;7.50;99.90;;;;;;5050005;28;19909;-74
2023/11/17 05:20:18;;;;;;;;;;;7.50;99.90;;;;;;5049909;28;19905;-75
2023/11/17 05:22:45;;;;;;;;;;;7.30;99.90;;;;;;5031957;28;19905;-74
2023/11/17 05:25:11;;;;;;;;;;;7.40;99.90;;;;;;5031585;28;19938;-75
2023/11/17 05:27:37;;;;;;;;;;;7.30;99.90;;;;;;5032332;28;19913;-74
2023/11/17 05:30:04;;;;;;;;;;;7.40;99.90;;;;;;5050772;28;19912;-74
2023/11/17 05:32:30;;;;;;;;;;;7.40;99.90;;;;;;5053807;28;19917;-73
2023/11/17 05:34:56;;;;;;;;;;;7.30;99.90;;;;;;5036157;28;19909;-75
2023/11/17 05:37:22;;;;;;;;;;;7.40;99.90;;;;;;5052505;28;19995;-74
2023/11/17 05:39:48;;;;;;;;;;;7.40;99.90;;;;;;5036030;28;19966;-74
2023/11/17 05:42:14;;;;;;;;;;;7.30;99.90;;;;;;5035899;28;20288;-74
2023/11/17 05:44:39;;;;;;;;;;;7.20;99.90;;;;;;5053776;28;19909;-74
2023/11/17 05:47:08;;;;;;;;;;;7.20;99.90;;;;;;5052382;28;19908;-75
2023/11/17 05:49:34;;;;;;;;;;;7.40;99.90;;;;;;5053781;28;19916;-74
2023/11/17 05:52:00;;;;;;;;;;;7.50;99.90;;;;;;5053691;28;19994;-73
2023/11/17 05:54:25;;;;;;;;;;;7.40;99.90;;;;;;5035154;28;19951;-74
2023/11/17 05:56:51;;;;;;;;;;;7.30;99.90;;;;;;5053687;28;19904;-73
2023/11/17 05:59:16;;;;;;;;;;;7.40;99.90;;;;;;5035711;28;20425;-73
2023/11/17 06:01:43;;;;;;;;;;;7.50;99.90;;;;;;5053274;28;19927;-74
2023/11/17 06:04:11;;;;;;;;;;;7.60;99.90;;;;;;5035656;28;20410;-76
2023/11/17 06:06:39;;;;;;;;;;;7.50;99.90;;;;;;5053527;28;19912;-75
2023/11/17 06:09:06;;;;;;;;;;;7.50;99.90;;;;;;5053630;28;19909;-72
2023/11/17 06:11:35;;;;;;;;;;;7.50;99.90;;;;;;5053591;28;20410;-74
2023/11/17 06:14:03;;;;;;;;;;;7.50;99.90;;;;;;5035487;28;19924;-73
2023/11/17 06:16:28;;;;;;;;;;;7.50;99.90;;;;;;5053404;28;19983;-73
2023/11/17 06:18:56;;;;;;;;;;;7.50;99.90;;;;;;5053096;28;19992;-73
2023/11/17 06:21:22;;;;;;;;;;;7.60;99.90;;;;;;5053415;28;19956;-74
2023/11/17 06:23:48;;;;;;;;;;;7.60;99.90;;;;;;5053354;28;19959;-73
2023/11/17 06:26:14;;;;;;;;;;;7.60;99.90;;;;;;5052286;28;19951;-74
2023/11/17 06:28:39;;;;;;;;;;;7.60;99.90;;;;;;5053677;28;20378;-73
2023/11/17 06:31:06;;;;;;;;;;;7.50;99.90;;;;;;5036038;28;19908;-74
2023/11/17 06:33:32;;;;;;;;;;;7.40;99.90;;;;;;5035834;28;19919;-75
2023/11/17 06:36:00;;;;;;;;;;;7.50;99.90;;;;;;5036687;28;19908;-74
2023/11/17 06:38:26;;;;;;;;;;;7.60;99.90;;;;;;5055232;28;19909;-76
2023/11/17 06:40:51;;;;;;;;;;;7.60;99.90;;;;;;5053526;28;20003;-75
2023/11/17 06:43:17;;;;;;;;;;;7.50;99.90;;;;;;5052320;28;20312;-74
2023/11/17 06:45:46;;;;;;;;;;;7.60;99.90;;;;;;5052714;28;19909;-74
2023/11/17 06:48:13;;;;;;;;;;;7.70;99.90;;;;;;5052752;28;20020;-74
2023/11/17 06:50:38;;;;;;;;;;;7.50;99.90;;;;;;5052627;28;19932;-74
2023/11/17 06:53:04;;;;;;;;;;;7.60;99.90;;;;;;5052433;28;19909;-75
2023/11/17 06:55:29;;;;;;;;;;;7.60;99.90;;;;;;5052458;28;19908;-75
2023/11/17 06:57:55;;;;;;;;;;;7.50;99.90;;;;;;5034437;28;19912;-74
2023/11/17 07:00:20;;;;;;;;;;;7.60;99.90;;;;;;5052529;28;19912;-74
2023/11/17 07:02:46;;;;;;;;;;;7.60;99.90;;;;;;5052164;28;19948;-75
2023/11/17 07:05:11;;;;;;;;;;;7.60;99.90;;;;;;5052350;28;19915;-74
2023/11/17 07:07:37;;;;;;;;;;;7.60;99.90;;;;;;5052391;28;19909;-74
2023/11/17 07:10:03;;;;;;;;;;;7.60;99.90;;;;;;5034115;28;19917;-75
2023/11/17 07:12:29;;;;;;;;;;;7.70;99.90;;;;;;5034201;28;19952;-74
2023/11/17 07:14:54;;;;;;;;;;;7.70;99.90;;;;;;5034353;28;20005;-74
2023/11/17 07:17:20;;;;;;;;;;;7.70;99.90;;;;;;5052065;28;19913;-74
2023/11/17 07:19:45;;;;;;;;;;;7.70;99.90;;;;;;5034550;28;19915;-74
2023/11/17 07:22:11;;;;;;;;;;;7.80;99.90;;;;;;5052175;28;19913;-74
2023/11/17 07:24:37;;;;;;;;;;;7.80;99.90;;;;;;5051184;28;19955;-75
2023/11/17 07:27:02;;;;;;;;;;;7.80;99.90;;;;;;5052868;28;19908;-75
2023/11/17 07:29:31;;;;;;;;;;;7.80;99.90;;;;;;5055353;28;19915;-75
2023/11/17 07:31:57;;;;;;;;;;;7.80;99.90;;;;;;5053016;28;19913;-75
2023/11/17 07:34:23;;;;;;;;;;;7.80;99.90;;;;;;5034871;28;19912;-75
2023/11/17 07:36:48;;;;;;;;;;;7.80;99.90;;;;;;5052752;28;19915;-76
2023/11/17 07:39:14;;;;;;;;;;;7.90;99.90;;;;;;5052811;28;20378;-75
2023/11/17 07:41:40;;;;;;;;;;;7.90;99.90;;;;;;5034620;28;19999;-75
2023/11/17 07:44:08;;;;;;;;;;;8.00;99.90;;;;;;5052637;28;19904;-75
2023/11/17 07:46:36;;;;;;;;;;;8.00;99.90;;;;;;5052881;28;19913;-75
2023/11/17 07:49:10;;;;;;;;;;;8.00;99.90;;;;;;5051821;28;19928;-74
2023/11/17 07:51:36;;;;;;;;;;;8.10;99.90;;;;;;5052739;28;19951;-75
2023/11/17 07:54:02;;;;;;;;;;;8.20;99.90;;;;;;5052688;28;19917;-75
2023/11/17 07:56:29;;;;;;;;;;;8.20;99.90;;;;;;5052803;28;20381;-76
2023/11/17 07:58:56;;;;;;;;;;;8.30;99.90;;;;;;5052719;28;20476;-75
2023/11/17 08:01:22;;;;;;;;;;;8.30;99.90;;;;;;5035264;28;19909;-75
2023/11/17 08:03:47;;;;;;;;;;;8.50;99.90;;;;;;5051400;28;20235;-75
2023/11/17 08:06:13;;;;;;;;;;;8.50;99.90;;;;;;5052909;28;19916;-75
2023/11/17 08:08:40;;;;;;;;;;;8.60;99.90;;;;;;5053174;28;19912;-75
2023/11/17 08:11:07;;;;;;;;;;;8.70;99.90;;;;;;5034843;28;19936;-74
2023/11/17 08:13:32;;;;;;;;;;;8.70;99.90;;;;;;5053392;28;19913;-75
2023/11/17 08:15:59;;;;;;;;;;;8.70;99.90;;;;;;5051351;28;20004;-75
2023/11/17 08:18:24;;;;;;;;;;;8.70;99.90;;;;;;5051982;28;20381;-74
2023/11/17 08:20:50;;;;;;;;;;;8.60;99.90;;;;;;5050140;28;19938;-74
2023/11/17 08:23:19;;;;;;;;;;;8.70;99.90;;;;;;5051784;28;19912;-74
2023/11/17 08:25:45;;;;;;;;;;;8.60;99.90;;;;;;5050552;28;19951;-75
2023/11/17 08:28:11;;;;;;;;;;;8.70;99.90;;;;;;5051687;28;19944;-75
2023/11/17 08:30:41;;;;;;;;;;;8.70;99.90;;;;;;5033677;28;19912;-75
2023/11/17 08:33:07;;;;;;;;;;;8.70;99.90;;;;;;5033457;28;19912;-75
2023/11/17 08:35:32;;;;;;;;;;;8.70;99.90;;;;;;5050151;28;19912;-74
2023/11/17 08:37:58;;;;;;;;;;;8.70;99.90;;;;;;5051498;28;20417;-74
2023/11/17 08:40:24;;;;;;;;;;;8.70;99.90;;;;;;5051098;28;20011;-74
2023/11/17 08:42:50;;;;;;;;;;;8.60;99.90;;;;;;5051165;28;19963;-74
2023/11/17 08:45:16;;;;;;;;;;;8.60;99.90;;;;;;5051500;28;19911;-74
2023/11/17 08:47:45;;;;;;;;;;;8.60;99.90;;;;;;5043035;28;19921;-75
2023/11/17 08:50:12;;;;;;;;;;;8.70;99.90;;;;;;5016170;28;20274;-76
2023/11/17 08:52:39;;;;;;;;;;;8.70;99.90;;;;;;5030516;28;19917;-75
2023/11/17 08:55:08;;;;;;;;;;;8.70;99.90;;;;;;5030719;28;19905;-74
2023/11/17 08:57:34;;;;;;;;;;;8.80;99.90;;;;;;5013090;28;19916;-74
2023/11/17 09:00:00;;;;;;;;;;;8.80;99.90;;;;;;5030057;28;19905;-75
2023/11/17 09:02:26;;;;;;;;;;;8.80;99.90;;;;;;5030415;28;19955;-75
2023/11/17 09:04:52;;;;;;;;;;;8.90;99.90;;;;;;5029774;28;19944;-75
2023/11/17 09:07:19;;;;;;;;;;;8.90;99.90;;;;;;5012562;28;19909;-74
2023/11/17 09:09:45;;;;;;;;;;;8.90;99.90;;;;;;5013000;28;19909;-74
2023/11/17 09:12:13;;;;;;;;;;;8.90;99.90;;;;;;5030585;28;19916;-74
2023/11/17 09:14:40;;;;;;;;;;;8.90;99.90;;;;;;5012719;28;20090;-74
2023/11/17 09:17:06;;;;;;;;;;;8.90;99.90;;;;;;5030068;28;19963;-74
2023/11/17 09:19:33;;;;;;;;;;;8.90;99.90;;;;;;5030004;28;19909;-74
2023/11/17 09:21:59;;;;;;;;;;;8.80;99.90;;;;;;5030367;28;19931;-75
2023/11/17 09:24:25;;;;;;;;;;;8.80;99.90;;;;;;5012814;28;19912;-75
2023/11/17 09:26:50;;;;;;;;;;;8.90;99.90;;;;;;5030169;28;20374;-75
2023/11/17 09:29:16;;;;;;;;;;;8.90;99.90;;;;;;5030093;28;19912;-74
2023/11/17 09:31:41;;;;;;;;;;;8.90;99.90;;;;;;5030143;28;19920;-75
2023/11/17 09:34:08;;;;;;;;;;;9.00;99.90;;;;;;5012212;28;19913;-74
2023/11/17 09:36:36;;;;;;;;;;;9.00;99.90;;;;;;5012332;28;19999;-74
2023/11/17 09:39:02;;;;;;;;;;;9.00;99.90;;;;;;5013022;28;19905;-75
2023/11/17 09:41:27;;;;;;;;;;;9.00;99.90;;;;;;5030696;28;19909;-75
2023/11/17 09:43:57;;;;;;;;;;;9.10;99.90;;;;;;5029770;28;19996;-75
2023/11/17 09:46:27;;;;;;;;;;;9.10;99.90;;;;;;5012603;28;19909;-75
2023/11/17 09:48:57;;;;;;;;;;;9.10;99.90;;;;;;5012111;28;20400;-74
2023/11/17 09:51:23;;;;;;;;;;;9.00;99.90;;;;;;5029842;28;19906;-74
2023/11/17 09:53:49;;;;;;;;;;;9.00;99.90;;;;;;5012248;28;19923;-74
2023/11/17 09:56:15;;;;;;;;;;;9.00;99.90;;;;;;5012593;28;19916;-74
2023/11/17 09:58:42;;;;;;;;;;;8.90;99.90;;;;;;5029620;28;19909;-74
2023/11/17 10:01:10;;;;;;;;;;;8.90;99.90;;;;;;5030491;28;19905;-75
2023/11/17 10:03:36;;;;;;;;;;;8.90;99.90;;;;;;5030499;28;19960;-74
2023/11/17 10:06:04;;;;;;;;;;;8.80;99.90;;;;;;5030128;28;19909;-75
2023/11/17 10:08:30;;;;;;;;;;;8.80;99.90;;;;;;5012329;28;19912;-74
2023/11/17 10:10:56;;;;;;;;;;;8.90;99.90;;;;;;5030369;28;19905;-74
2023/11/17 10:13:23;;;;;;;;;;;8.80;99.90;;;;;;5030405;28;19939;-74
2023/11/17 10:15:52;;;;;;;;;;;8.80;99.90;;;;;;5030848;28;19913;-74
2023/11/17 10:18:20;;;;;;;;;;;8.80;99.90;;;;;;5033981;28;19905;-75
2023/11/17 10:20:46;;;;;;;;;;;8.80;99.90;;;;;;5033429;28;19911;-74
2023/11/17 10:23:11;;;;;;;;;;;8.90;99.90;;;;;;5015336;28;19905;-74
2023/11/17 10:25:38;;;;;;;;;;;8.90;99.90;;;;;;5033348;28;19916;-74
2023/11/17 10:28:04;;;;;;;;;;;8.90;99.90;;;;;;5033194;28;19913;-75
2023/11/17 10:30:30;;;;;;;;;;;8.90;99.90;;;;;;5033259;28;19912;-73
2023/11/17 10:32:58;;;;;;;;;;;8.90;99.90;;;;;;5037846;28;19959;-75
2023/11/17 10:35:24;;;;;;;;;;;8.90;99.90;;;;;;5033930;28;19908;-74
2023/11/17 10:37:54;;;;;;;;;;;8.90;99.90;;;;;;5039374;28;20380;-74
2023/11/17 10:40:31;;;;;;;;;;;8.90;99.90;;;;;;5034924;28;19909;-74
2023/11/17 10:43:07;;;;;;;;;;;8.90;99.90;;;;;;5015461;28;20000;-74
2023/11/17 10:45:33;;;;;;;;;;;8.90;99.90;;;;;;5034552;28;19913;-74
2023/11/17 10:47:59;;;;;;;;;;;8.90;99.90;;;;;;5060721;28;20395;-75
2023/11/17 10:50:28;;;;;;;;;;;8.90;99.90;;;;;;5035091;28;19905;-74
2023/11/17 10:52:54;;;;;;;;;;;8.90;99.90;;;;;;5052720;28;20371;-74
2023/11/17 10:55:35;;;;;;;;;;;8.90;99.90;;;;;;5034941;28;19908;-74
2023/11/17 10:58:04;;;;;;;;;;;9.00;99.90;;;;;;5052645;28;19913;-74
2023/11/17 11:00:33;;;;;;;;;;;9.10;99.90;;;;;;5053561;28;19912;-74
2023/11/17 11:03:02;;;;;;;;;;;9.20;99.90;;;;;;5054464;28;20385;-76
2023/11/17 11:05:28;;;;;;;;;;;9.30;99.90;;;;;;5035696;28;19939;-74
2023/11/17 11:07:55;;;;;;;;;;;9.30;99.90;;;;;;5034621;28;19943;-74
2023/11/17 11:10:21;;;;;;;;;;;9.40;99.90;;;;;;5034406;28;19920;-74
2023/11/17 11:12:46;;;;;;;;;;;9.40;99.90;;;;;;5052856;28;19909;-74
2023/11/17 11:15:15;;;;;;;;;;;9.40;99.90;;;;;;5061330;28;19909;-74
2023/11/17 11:17:58;;;;;;;;;;;9.40;99.90;;;;;;5062264;28;20385;-74
2023/11/17 11:20:24;;;;;;;;;;;9.50;99.90;;;;;;5060350;28;19909;-74
2023/11/17 11:22:55;;;;;;;;;;;9.50;99.90;;;;;;5043845;28;19904;-74
2023/11/17 11:25:21;;;;;;;;;;;9.60;99.90;;;;;;5057708;28;19952;-74
2023/11/17 11:27:47;;;;;;;;;;;9.70;99.90;;;;;;5059741;28;19967;-75
2023/11/17 11:30:14;;;;;;;;;;;9.70;99.90;;;;;;5061371;28;19958;-74
2023/11/17 11:32:40;;;;;;;;;;;9.80;99.90;;;;;;5061987;28;19935;-75
2023/11/17 11:35:05;;;;;;;;;;;9.90;99.90;;;;;;5042525;28;20288;-75
2023/11/17 11:37:33;;;;;;;;;;;9.90;99.90;;;;;;5061580;28;19908;-74
2023/11/17 11:40:01;;;;;;;;;;;9.90;99.90;;;;;;5062286;28;19913;-75
2023/11/17 11:42:26;;;;;;;;;;;9.90;99.90;;;;;;5042205;28;20652;-74
2023/11/17 11:44:52;;;;;;;;;;;9.80;99.90;;;;;;5060953;28;19904;-73
2023/11/17 11:47:18;;;;;;;;;;;9.80;99.90;;;;;;5061385;28;19920;-74
2023/11/17 11:49:45;;;;;;;;;;;9.70;99.90;;;;;;5060097;28;19905;-74
2023/11/17 11:52:19;;;;;;;;;;;9.70;99.90;;;;;;5043271;28;20339;-75
2023/11/17 11:54:44;;;;;;;;;;;9.70;99.90;;;;;;5047435;28;19924;-74
2023/11/17 11:57:27;;;;;;;;;;;9.60;99.90;;;;;;5071243;28;19908;-75
2023/11/17 11:59:59;;;;;;;;;;;9.60;99.90;;;;;;5071347;28;19904;-75
2023/11/17 12:02:25;;;;;;;;;;;9.60;99.90;;;;;;5071036;28;19904;-74
2023/11/17 12:04:54;;;;;;;;;;;9.60;99.90;;;;;;5053135;28;20285;-74
2023/11/17 12:07:32;;;;;;;;;;;9.60;99.90;;;;;;5071116;28;19950;-74
2023/11/17 12:09:58;;;;;;;;;;;9.60;99.90;;;;;;5053238;28;19905;-75
2023/11/17 12:12:24;;;;;;;;;;;9.60;99.90;;;;;;5071135;28;20730;-75
2023/11/17 12:14:51;;;;;;;;;;;9.60;99.90;;;;;;5071042;28;19908;-75
2023/11/17 12:17:16;;;;;;;;;;;9.50;99.90;;;;;;5070882;28;20293;-74
2023/11/17 12:19:42;;;;;;;;;;;9.30;99.90;;;;;;5053419;28;19909;-75
2023/11/17 12:22:10;;;;;;;;;;;9.30;99.90;;;;;;5070900;28;19909;-74
2023/11/17 12:24:37;;;;;;;;;;;9.20;99.90;;;;;;5070863;28;20270;-73
2023/11/17 12:27:04;;;;;;;;;;;9.20;99.90;;;;;;5052988;28;19905;-75
2023/11/17 12:29:31;;;;;;;;;;;9.30;99.90;;;;;;5071014;28;19911;-75
2023/11/17 12:32:03;;;;;;;;;;;9.20;99.90;;;;;;5070815;28;19911;-74
2023/11/17 12:34:28;;;;;;;;;;;9.20;99.90;;;;;;5052722;28;19916;-74
2023/11/17 12:37:00;;;;;;;;;;;9.20;99.90;;;;;;5070439;28;19908;-74
2023/11/17 12:39:35;;;;;;;;;;;9.20;99.90;;;;;;5069870;28;19958;-74
2023/11/17 12:42:01;;;;;;;;;;;9.20;99.90;;;;;;5070685;28;19908;-74
2023/11/17 12:44:27;;;;;;;;;;;9.20;99.90;;;;;;5070670;28;19944;-74
2023/11/17 12:46:53;;;;;;;;;;;9.10;99.90;;;;;;5059294;28;19943;-75
2023/11/17 12:49:19;;;;;;;;;;;9.10;99.90;;;;;;5067532;28;20033;-74
2023/11/17 12:51:44;;;;;;;;;;;9.10;99.90;;;;;;5070577;28;20613;-75
2023/11/17 12:54:15;;;;;;;;;;;9.10;99.90;;;;;;5069273;28;19999;-73
2023/11/17 12:56:41;;;;;;;;;;;9.00;99.90;;;;;;5070772;28;20358;-74
2023/11/17 12:59:07;;;;;;;;;;;9.00;99.90;;;;;;5070489;28;19915;-74
2023/11/17 13:01:35;;;;;;;;;;;8.90;99.90;;;;;;5068908;28;19911;-74
2023/11/17 13:04:00;;;;;;;;;;;8.80;99.90;;;;;;5052588;28;20274;-75
2023/11/17 13:06:27;;;;;;;;;;;8.90;99.90;;;;;;5070542;28;19905;-74
2023/11/17 13:08:56;;;;;;;;;;;8.90;99.90;;;;;;5070585;28;19908;-74
2023/11/17 13:11:22;;;;;;;;;;;8.70;99.90;;;;;;5071145;28;19913;-74
2023/11/17 13:13:47;;;;;;;;;;;8.70;99.90;;;;;;5070929;28;20471;-75
2023/11/17 13:16:14;;;;;;;;;;;8.70;99.90;;;;;;5054793;28;19915;-76
2023/11/17 13:18:41;;;;;;;;;;;8.70;99.90;;;;;;5052517;28;20003;-74
2023/11/17 13:21:10;;;;;;;;;;;8.60;99.90;;;;;;5069985;28;20382;-75
2023/11/17 13:23:37;;;;;;;;;;;8.50;99.90;;;;;;5070325;28;19905;-74
2023/11/17 13:26:06;;;;;;;;;;;8.60;99.90;;;;;;5069968;28;20353;-74
2023/11/17 13:28:38;;;;;;;;;;;8.60;99.90;;;;;;5069844;28;19915;-75
2023/11/17 13:31:17;;;;;;;;;;;8.60;99.90;;;;;;5069898;28;19959;-74
2023/11/17 13:33:43;;;;;;;;;;;8.70;99.90;;;;;;5070121;28;19985;-74
2023/11/17 13:36:09;;;;;;;;;;;8.60;99.90;;;;;;5052364;28;20376;-74
2023/11/17 13:38:54;;;;;;;;;;;8.60;99.90;;;;;;5051778;28;19908;-74
2023/11/17 13:41:19;;;;;;;;;;;8.60;99.90;;;;;;5069800;28;19904;-74
2023/11/17 13:43:47;;;;;;;;;;;8.60;99.90;;;;;;5070043;28;19908;-74
2023/11/17 13:46:13;;;;;;;;;;;8.60;99.90;;;;;;5069895;28;19905;-74
2023/11/17 13:48:42;;;;;;;;;;;8.50;99.90;;;;;;5069714;28;19990;-74
2023/11/17 13:51:08;;;;;;;;;;;8.50;99.90;;;;;;5066809;28;19958;-74
2023/11/17 13:53:34;;;;;;;;;;;8.50;99.90;;;;;;5073584;28;20396;-74
2023/11/17 13:55:59;;;;;;;;;;;8.50;99.90;;;;;;5073967;28;19912;-74
2023/11/17 13:58:26;;;;;;;;;;;8.50;99.90;;;;;;5055683;28;19943;-74
2023/11/17 14:00:52;;;;;;;;;;;8.50;99.90;;;;;;5073739;28;19994;-74
2023/11/17 14:03:17;;;;;;;;;;;8.50;99.90;;;;;;5055288;28;19947;-75
2023/11/17 14:05:45;;;;;;;;;;;8.40;99.90;;;;;;5055244;28;20001;-75
2023/11/17 14:08:12;;;;;;;;;;;8.40;99.90;;;;;;5073459;28;19912;-75
2023/11/17 14:10:38;;;;;;;;;;;8.40;99.90;;;;;;5073773;28;19911;-74
2023/11/17 14:13:04;;;;;;;;;;;8.40;99.90;;;;;;5073333;28;19908;-74
2023/11/17 14:15:31;;;;;;;;;;;8.40;99.90;;;;;;5073629;28;19915;-74
2023/11/17 14:17:56;;;;;;;;;;;8.40;99.90;;;;;;5055258;28;19959;-75
2023/11/17 14:20:24;;;;;;;;;;;8.30;99.90;;;;;;5055430;28;19904;-74
2023/11/17 14:22:50;;;;;;;;;;;8.30;99.90;;;;;;5055420;28;19995;-75
2023/11/17 14:25:17;;;;;;;;;;;8.30;99.90;;;;;;5073255;28;19999;-75
2023/11/17 14:27:46;;;;;;;;;;;8.30;99.90;;;;;;5073111;28;19910;-74
2023/11/17 14:30:18;;;;;;;;;;;8.30;99.90;;;;;;5055087;28;19915;-75